createdAt,value
2016-06-20T00:00:38.962Z,0
2016-06-20T00:01:39.590Z,0
2016-06-20T00:02:38.984Z,0
2016-06-20T00:03:38.347Z,0
2016-06-20T00:04:39.615Z,0
2016-06-20T00:05:38.994Z,0
2016-06-20T00:06:39.013Z,0
2016-06-20T00:07:39.642Z,0
2016-06-20T00:08:38.411Z,0
2016-06-20T00:09:39.633Z,0
2016-06-20T00:10:38.402Z,0
2016-06-20T00:11:38.437Z,0
2016-06-20T00:12:38.425Z,0
2016-06-20T00:13:39.646Z,0
2016-06-20T00:14:39.057Z,0
2016-06-20T00:15:39.686Z,0
2016-06-20T00:16:39.673Z,0
2016-06-20T00:17:39.676Z,0
2016-06-20T00:18:39.071Z,0
2016-06-20T00:19:38.481Z,0
2016-06-20T00:20:39.078Z,0
2016-06-20T00:21:39.081Z,0
2016-06-20T00:22:39.116Z,0
2016-06-20T00:23:39.103Z,0
2016-06-20T00:24:39.123Z,0
2016-06-20T00:25:39.751Z,0
2016-06-20T00:26:38.488Z,0
2016-06-20T00:27:38.493Z,0
2016-06-20T00:28:39.137Z,0
2016-06-20T00:29:38.531Z,0
2016-06-20T00:30:39.127Z,0
2016-06-20T00:31:38.538Z,0
2016-06-20T00:32:38.542Z,0
2016-06-20T00:33:40.373Z,0
2016-06-20T00:34:39.766Z,0
2016-06-20T00:35:39.161Z,0
2016-06-20T00:36:38.556Z,0
2016-06-20T00:37:38.574Z,0
2016-06-20T00:38:39.187Z,0
2016-06-20T00:39:39.191Z,0
2016-06-20T00:40:38.569Z,0
2016-06-20T00:41:38.572Z,0
2016-06-20T00:42:38.591Z,0
2016-06-20T00:43:40.501Z,0
2016-06-20T00:44:39.208Z,0
2016-06-20T00:45:40.071Z,0
2016-06-20T00:46:39.230Z,0
2016-06-20T00:47:38.609Z,0
2016-06-20T00:48:40.472Z,0
2016-06-20T00:49:39.866Z,0
2016-06-20T00:50:39.868Z,0
2016-06-20T00:51:38.622Z,0
2016-06-20T00:52:39.281Z,0
2016-06-20T00:53:39.270Z,0
2016-06-20T00:54:40.460Z,0
2016-06-20T00:55:39.902Z,0
2016-06-20T00:56:39.405Z,0
2016-06-20T00:57:39.909Z,0
2016-06-20T00:58:38.662Z,0
2016-06-20T00:59:39.306Z,0
2016-06-20T01:00:39.935Z,0
2016-06-20T01:01:38.688Z,0
2016-06-20T01:02:39.941Z,0
2016-06-20T01:03:39.320Z,0
2016-06-20T01:04:38.698Z,0
2016-06-20T01:05:39.562Z,0
2016-06-20T01:06:39.955Z,0
2016-06-20T01:07:39.350Z,0
2016-06-20T01:08:40.587Z,0
2016-06-20T01:09:39.356Z,0
2016-06-20T01:10:39.985Z,0
2016-06-20T01:11:40.614Z,0
2016-06-20T01:12:40.008Z,0
2016-06-20T01:13:39.433Z,0
2016-06-20T01:14:38.765Z,0
2016-06-20T01:15:38.769Z,0
2016-06-20T01:16:39.397Z,0
2016-06-20T01:17:39.400Z,0
2016-06-20T01:18:38.840Z,0
2016-06-20T01:19:40.032Z,0
2016-06-20T01:20:40.536Z,0
2016-06-20T01:21:38.804Z,0
2016-06-20T01:22:39.432Z,0
2016-06-20T01:23:40.671Z,0
2016-06-20T01:24:40.065Z,0
2016-06-20T01:25:39.443Z,0
2016-06-20T01:26:40.071Z,0
2016-06-20T01:27:41.169Z,0
2016-06-20T01:28:38.845Z,0
2016-06-20T01:29:40.723Z,0
2016-06-20T01:30:40.101Z,0
2016-06-20T01:31:38.886Z,0
2016-06-20T01:32:38.859Z,0
2016-06-20T01:33:39.549Z,0
2016-06-20T01:34:40.131Z,0
2016-06-20T01:35:39.493Z,0
2016-06-20T01:36:39.513Z,0
2016-06-20T01:37:38.923Z,0
2016-06-20T01:38:41.316Z,0
2016-06-20T01:39:39.539Z,0
2016-06-20T01:40:40.183Z,0
2016-06-20T01:41:38.920Z,0
2016-06-20T01:42:39.674Z,0
2016-06-20T01:43:38.927Z,0
2016-06-20T01:44:39.556Z,0
2016-06-20T01:45:39.559Z,0
2016-06-20T01:46:38.953Z,0
2016-06-20T01:47:39.597Z,0
2016-06-20T01:48:38.975Z,0
2016-06-20T01:49:40.183Z,0
2016-06-20T01:50:38.982Z,0
2016-06-20T01:51:39.861Z,0
2016-06-20T01:52:40.208Z,0
2016-06-20T01:53:39.603Z,0
2016-06-20T01:54:39.044Z,0
2016-06-20T01:55:39.672Z,0
2016-06-20T01:56:39.003Z,0
2016-06-20T01:57:39.007Z,0
2016-06-20T01:58:40.260Z,0
2016-06-20T01:59:40.874Z,0
2016-06-20T02:00:39.986Z,0
2016-06-20T02:01:39.036Z,0
2016-06-20T02:02:39.665Z,0
2016-06-20T02:03:39.043Z,0
2016-06-20T02:04:41.921Z,0
2016-06-20T02:05:40.284Z,0
2016-06-20T02:06:39.054Z,0
2016-06-20T02:07:40.291Z,0
2016-06-20T02:08:39.702Z,0
2016-06-20T02:09:40.314Z,0
2016-06-20T02:10:40.318Z,0
2016-06-20T02:11:39.696Z,0
2016-06-20T02:12:39.716Z,0
2016-06-20T02:13:39.234Z,0
2016-06-20T02:14:40.332Z,0
2016-06-20T02:15:39.116Z,0
2016-06-20T02:16:39.744Z,0
2016-06-20T02:17:39.748Z,0
2016-06-20T02:18:40.361Z,0
2016-06-20T02:19:39.754Z,0
2016-06-20T02:20:40.383Z,0
2016-06-20T02:21:39.761Z,0
2016-06-20T02:22:39.375Z,0
2016-06-20T02:23:39.160Z,0
2016-06-20T02:24:41.850Z,0
2016-06-20T02:25:40.385Z,0
2016-06-20T02:26:40.607Z,0
2016-06-20T02:27:39.845Z,0
2016-06-20T02:28:39.802Z,0
2016-06-20T02:29:39.806Z,0
2016-06-20T02:30:40.434Z,0
2016-06-20T02:31:39.828Z,0
2016-06-20T02:32:39.832Z,0
2016-06-20T02:33:39.835Z,0
2016-06-20T02:34:39.228Z,0
2016-06-20T02:35:41.310Z,0
2016-06-20T02:36:41.079Z,0
2016-06-20T02:37:40.052Z,0
2016-06-20T02:38:39.867Z,0
2016-06-20T02:39:39.245Z,0
2016-06-20T02:40:39.859Z,0
2016-06-20T02:41:39.878Z,0
2016-06-20T02:42:39.897Z,0
2016-06-20T02:43:41.120Z,0
2016-06-20T02:44:39.279Z,0
2016-06-20T02:45:39.908Z,0
2016-06-20T02:46:41.145Z,0
2016-06-20T02:47:39.289Z,0
2016-06-20T02:48:40.012Z,0
2016-06-20T02:49:39.297Z,0
2016-06-20T02:50:39.955Z,0
2016-06-20T02:51:39.318Z,0
2016-06-20T02:52:40.557Z,0
2016-06-20T02:53:39.950Z,0
2016-06-20T02:54:39.328Z,0
2016-06-20T02:55:41.676Z,0
2016-06-20T02:56:39.403Z,0
2016-06-20T02:57:40.618Z,0
2016-06-20T02:58:39.427Z,0
2016-06-20T02:59:40.064Z,0
2016-06-20T03:00:40.028Z,0
2016-06-20T03:01:40.022Z,0
2016-06-20T03:02:39.419Z,0
2016-06-20T03:03:39.426Z,0
2016-06-20T03:04:40.058Z,0
2016-06-20T03:05:39.439Z,0
2016-06-20T03:06:40.679Z,0
2016-06-20T03:07:39.465Z,0
2016-06-20T03:08:40.406Z,0
2016-06-20T03:09:39.474Z,0
2016-06-20T03:10:40.744Z,0
2016-06-20T03:11:41.342Z,0
2016-06-20T03:12:39.486Z,0
2016-06-20T03:13:40.131Z,0
2016-06-20T03:14:40.135Z,0
2016-06-20T03:15:40.138Z,0
2016-06-20T03:16:40.127Z,0
2016-06-20T03:17:41.381Z,0
2016-06-20T03:18:39.525Z,0
2016-06-20T03:19:40.138Z,0
2016-06-20T03:20:40.783Z,0
2016-06-20T03:21:39.552Z,0
2016-06-20T03:22:40.790Z,0
2016-06-20T03:23:40.168Z,0
2016-06-20T03:24:39.563Z,0
2016-06-20T03:25:40.816Z,0
2016-06-20T03:26:40.804Z,5
2016-06-20T03:27:40.823Z,5
2016-06-20T03:28:40.201Z,5
2016-06-20T03:29:40.830Z,5
2016-06-20T03:30:42.239Z,5
2016-06-20T03:31:39.602Z,5
2016-06-20T03:32:41.106Z,5
2016-06-20T03:33:40.860Z,5
2016-06-20T03:34:39.613Z,5
2016-06-20T03:35:40.866Z,5
2016-06-20T03:36:40.245Z,5
2016-06-20T03:37:40.248Z,5
2016-06-20T03:38:40.252Z,5
2016-06-20T03:39:39.646Z,5
2016-06-20T03:40:40.290Z,10
2016-06-20T03:41:41.981Z,10
2016-06-20T03:42:40.906Z,10
2016-06-20T03:43:40.878Z,10
2016-06-20T03:44:39.679Z,10
2016-06-20T03:45:40.308Z,10
2016-06-20T03:46:39.685Z,10
2016-06-20T03:47:39.704Z,10
2016-06-20T03:48:39.692Z,10
2016-06-20T03:49:39.711Z,10
2016-06-20T03:50:42.386Z,15
2016-06-20T03:51:39.718Z,15
2016-06-20T03:52:40.768Z,15
2016-06-20T03:53:39.725Z,15
2016-06-20T03:54:40.353Z,15
2016-06-20T03:55:41.029Z,15
2016-06-20T03:56:40.376Z,15
2016-06-20T03:57:39.755Z,15
2016-06-20T03:58:40.383Z,15
2016-06-20T03:59:40.434Z,20
2016-06-20T04:00:41.015Z,20
2016-06-20T04:01:41.362Z,20
2016-06-20T04:02:41.006Z,20
2016-06-20T04:03:41.025Z,20
2016-06-20T04:04:39.795Z,20
2016-06-20T04:05:42.095Z,25
2016-06-20T04:06:40.410Z,25
2016-06-20T04:07:39.805Z,25
2016-06-20T04:08:39.809Z,25
2016-06-20T04:09:41.046Z,25
2016-06-20T04:10:40.441Z,25
2016-06-20T04:11:39.834Z,25
2016-06-20T04:12:40.447Z,25
2016-06-20T04:13:40.482Z,30
2016-06-20T04:14:40.470Z,30
2016-06-20T04:15:40.473Z,30
2016-06-20T04:16:42.384Z,30
2016-06-20T04:17:39.855Z,30
2016-06-20T04:18:40.515Z,30
2016-06-20T04:19:41.097Z,35
2016-06-20T04:20:40.491Z,35
2016-06-20T04:21:40.509Z,35
2016-06-20T04:22:40.529Z,35
2016-06-20T04:23:39.891Z,35
2016-06-20T04:24:39.911Z,35
2016-06-20T04:25:42.851Z,40
2016-06-20T04:26:41.152Z,40
2016-06-20T04:27:41.499Z,40
2016-06-20T04:28:40.534Z,40
2016-06-20T04:29:39.928Z,40
2016-06-20T04:30:40.557Z,45
2016-06-20T04:31:39.936Z,45
2016-06-20T04:32:41.204Z,45
2016-06-20T04:33:40.598Z,45
2016-06-20T04:34:40.570Z,45
2016-06-20T04:35:40.589Z,50
2016-06-20T04:36:42.342Z,50
2016-06-20T04:37:39.987Z,50
2016-06-20T04:38:41.130Z,50
2016-06-20T04:39:41.228Z,55
2016-06-20T04:40:40.606Z,60
2016-06-20T04:41:39.985Z,60
2016-06-20T04:42:40.004Z,60
2016-06-20T04:43:40.633Z,65
2016-06-20T04:44:40.636Z,75
2016-06-20T04:45:40.624Z,65
2016-06-20T04:46:41.268Z,65
2016-06-20T04:47:41.834Z,80
2016-06-20T04:48:40.040Z,65
2016-06-20T04:49:40.637Z,80
2016-06-20T04:50:40.047Z,70
2016-06-20T04:51:41.286Z,140
2016-06-20T04:52:41.288Z,225
2016-06-20T04:53:40.698Z,275
2016-06-20T04:54:40.077Z,215
2016-06-20T04:55:40.705Z,325
2016-06-20T04:56:41.364Z,385
2016-06-20T04:57:40.712Z,415
2016-06-20T04:58:41.371Z,420
2016-06-20T04:59:40.860Z,430
2016-06-20T05:00:43.161Z,450
2016-06-20T05:01:40.117Z,455
2016-06-20T05:02:40.121Z,465
2016-06-20T05:03:40.124Z,480
2016-06-20T05:04:41.986Z,485
2016-06-20T05:05:40.146Z,495
2016-06-20T05:06:40.775Z,505
2016-06-20T05:07:40.763Z,525
2016-06-20T05:08:40.156Z,540
2016-06-20T05:09:42.035Z,545
2016-06-20T05:10:40.788Z,560
2016-06-20T05:11:40.807Z,560
2016-06-20T05:12:41.436Z,565
2016-06-20T05:13:40.251Z,565
2016-06-20T05:14:40.193Z,580
2016-06-20T05:15:40.837Z,590
2016-06-20T05:16:40.216Z,575
2016-06-20T05:17:41.470Z,575
2016-06-20T05:18:40.238Z,600
2016-06-20T05:19:40.866Z,565
2016-06-20T05:20:41.323Z,545
2016-06-20T05:21:41.483Z,515
2016-06-20T05:22:40.267Z,605
2016-06-20T05:23:40.911Z,500
2016-06-20T05:24:41.508Z,545
2016-06-20T05:25:40.903Z,565
2016-06-20T05:26:41.531Z,600
2016-06-20T05:27:40.925Z,425
2016-06-20T05:28:42.210Z,605
2016-06-20T05:29:41.542Z,665
2016-06-20T05:30:40.326Z,650
2016-06-20T05:31:41.221Z,640
2016-06-20T05:32:41.583Z,565
2016-06-20T05:33:42.961Z,445
2016-06-20T05:34:42.215Z,690
2016-06-20T05:35:40.985Z,555
2016-06-20T05:36:40.378Z,465
2016-06-20T05:37:41.617Z,390
2016-06-20T05:38:41.010Z,680
2016-06-20T05:39:40.404Z,570
2016-06-20T05:40:40.408Z,740
2016-06-20T05:41:40.411Z,625
2016-06-20T05:42:41.087Z,635
2016-06-20T05:43:40.418Z,540
2016-06-20T05:44:42.843Z,690
2016-06-20T05:45:41.066Z,735
2016-06-20T05:46:41.070Z,860
2016-06-20T05:47:40.479Z,855
2016-06-20T05:48:41.732Z,810
2016-06-20T05:49:41.720Z,760
2016-06-20T05:50:41.098Z,785
2016-06-20T05:51:41.149Z,690
2016-06-20T05:52:41.136Z,825
2016-06-20T05:53:43.031Z,830
2016-06-20T05:54:42.378Z,900
2016-06-20T05:55:42.632Z,870
2016-06-20T05:56:40.588Z,845
2016-06-20T05:57:40.544Z,895
2016-06-20T05:58:41.798Z,905
2016-06-20T05:59:41.239Z,985
2016-06-20T06:00:40.633Z,905
2016-06-20T06:01:42.450Z,905
2016-06-20T06:02:41.250Z,910
2016-06-20T06:03:40.643Z,975
2016-06-20T06:04:43.366Z,980
2016-06-20T06:05:41.244Z,975
2016-06-20T06:06:42.326Z,945
2016-06-20T06:07:41.876Z,970
2016-06-20T06:08:40.661Z,980
2016-06-20T06:09:41.274Z,990
2016-06-20T06:10:41.292Z,1035
2016-06-20T06:11:40.687Z,845
2016-06-20T06:12:41.315Z,955
2016-06-20T06:13:41.319Z,930
2016-06-20T06:14:40.697Z,895
2016-06-20T06:15:43.107Z,820
2016-06-20T06:16:41.361Z,710
2016-06-20T06:17:42.004Z,650
2016-06-20T06:18:40.743Z,790
2016-06-20T06:19:43.730Z,755
2016-06-20T06:20:41.390Z,610
2016-06-20T06:21:43.253Z,690
2016-06-20T06:22:42.647Z,570
2016-06-20T06:23:41.416Z,605
2016-06-20T06:24:42.029Z,790
2016-06-20T06:25:42.047Z,955
2016-06-20T06:26:42.254Z,940
2016-06-20T06:27:40.837Z,965
2016-06-20T06:29:03.168Z,910
2016-06-20T06:29:42.077Z,845
2016-06-20T06:30:41.487Z,840
2016-06-20T06:31:40.881Z,835
2016-06-20T06:32:42.729Z,895
2016-06-20T06:33:41.497Z,885
2016-06-20T06:34:40.891Z,840
2016-06-20T06:35:40.926Z,890
2016-06-20T06:36:41.523Z,775
2016-06-20T06:37:41.917Z,915
2016-06-20T06:38:40.967Z,920
2016-06-20T06:39:41.549Z,920
2016-06-20T06:40:40.943Z,1010
2016-06-20T06:41:40.962Z,1105
2016-06-20T06:42:40.981Z,950
2016-06-20T06:43:42.219Z,985
2016-06-20T06:44:41.614Z,925
2016-06-20T06:45:41.617Z,790
2016-06-20T06:46:41.620Z,775
2016-06-20T06:47:41.624Z,885
2016-06-20T06:48:41.627Z,1120
2016-06-20T06:49:41.022Z,1240
2016-06-20T06:50:43.337Z,1285
2016-06-20T06:51:41.670Z,1035
2016-06-20T06:52:42.891Z,1320
2016-06-20T06:53:41.676Z,1370
2016-06-20T06:54:41.070Z,1020
2016-06-20T06:55:41.073Z,1330
2016-06-20T06:56:41.093Z,920
2016-06-20T06:57:41.096Z,890
2016-06-20T06:58:41.115Z,1155
2016-06-20T06:59:42.962Z,680
2016-06-20T07:00:41.232Z,665
2016-06-20T07:01:41.392Z,485
2016-06-20T07:02:43.613Z,640
2016-06-20T07:03:41.164Z,515
2016-06-20T07:04:41.168Z,360
2016-06-20T07:05:42.405Z,475
2016-06-20T07:06:41.189Z,660
2016-06-20T07:07:41.193Z,735
2016-06-20T07:08:41.838Z,1190
2016-06-20T07:09:41.841Z,1005
2016-06-20T07:10:41.531Z,920
2016-06-20T07:11:41.848Z,760
2016-06-20T07:12:43.726Z,640
2016-06-20T07:13:41.246Z,660
2016-06-20T07:14:41.264Z,695
2016-06-20T07:15:41.892Z,875
2016-06-20T07:16:42.506Z,870
2016-06-20T07:17:41.916Z,820
2016-06-20T07:18:41.919Z,915
2016-06-20T07:19:41.937Z,735
2016-06-20T07:20:41.301Z,655
2016-06-20T07:21:41.929Z,335
2016-06-20T07:22:41.948Z,500
2016-06-20T07:23:44.327Z,695
2016-06-20T07:24:42.579Z,970
2016-06-20T07:25:42.927Z,1300
2016-06-20T07:26:41.352Z,1220
2016-06-20T07:27:42.622Z,1205
2016-06-20T07:28:43.235Z,1230
2016-06-20T07:29:42.635Z,1260
2016-06-20T07:30:42.036Z,1270
2016-06-20T07:31:41.438Z,1245
2016-06-20T07:32:42.074Z,1280
2016-06-20T07:33:42.068Z,1230
2016-06-20T07:34:43.294Z,1120
2016-06-20T07:35:42.097Z,755
2016-06-20T07:36:42.868Z,415
2016-06-20T07:37:41.499Z,245
2016-06-20T07:38:41.536Z,225
2016-06-20T07:39:42.791Z,205
2016-06-20T07:40:41.577Z,215
2016-06-20T07:41:42.159Z,165
2016-06-20T07:42:42.194Z,130
2016-06-20T07:43:44.106Z,140
2016-06-20T07:44:42.219Z,160
2016-06-20T07:45:43.098Z,155
2016-06-20T07:46:42.210Z,145
2016-06-20T07:47:42.684Z,130
2016-06-20T07:48:41.625Z,120
2016-06-20T07:49:42.238Z,115
2016-06-20T07:50:42.867Z,105
2016-06-20T07:51:43.494Z,95
2016-06-20T07:52:42.890Z,90
2016-06-20T07:53:41.642Z,85
2016-06-20T07:54:43.614Z,90
2016-06-20T07:55:42.290Z,95
2016-06-20T07:56:43.215Z,95
2016-06-20T07:57:42.969Z,105
2016-06-20T07:58:42.800Z,100
2016-06-20T07:59:42.336Z,105
2016-06-20T08:00:42.401Z,115
2016-06-20T08:01:42.998Z,115
2016-06-20T08:02:42.392Z,115
2016-06-20T08:03:42.364Z,110
2016-06-20T08:04:41.743Z,105
2016-06-20T08:05:43.903Z,100
2016-06-20T08:06:42.375Z,105
2016-06-20T08:07:44.003Z,120
2016-06-20T08:08:43.460Z,135
2016-06-20T08:09:43.057Z,140
2016-06-20T08:10:43.030Z,130
2016-06-20T08:11:43.017Z,120
2016-06-20T08:12:42.426Z,120
2016-06-20T08:13:43.665Z,135
2016-06-20T08:14:42.418Z,155
2016-06-20T08:15:41.828Z,175
2016-06-20T08:16:43.816Z,195
2016-06-20T08:17:42.460Z,205
2016-06-20T08:18:43.416Z,205
2016-06-20T08:19:42.483Z,190
2016-06-20T08:20:43.017Z,210
2016-06-20T08:21:41.879Z,205
2016-06-20T08:22:42.508Z,205
2016-06-20T08:23:43.121Z,205
2016-06-20T08:24:41.906Z,185
2016-06-20T08:25:42.518Z,185
2016-06-20T08:26:43.132Z,165
2016-06-20T08:27:43.822Z,165
2016-06-20T08:28:42.544Z,165
2016-06-20T08:29:43.485Z,165
2016-06-20T08:30:42.583Z,160
2016-06-20T08:31:43.039Z,150
2016-06-20T08:32:42.574Z,150
2016-06-20T08:33:42.579Z,140
2016-06-20T08:34:43.191Z,140
2016-06-20T08:35:43.210Z,135
2016-06-20T08:36:43.228Z,140
2016-06-20T08:37:43.232Z,140
2016-06-20T08:38:43.970Z,140
2016-06-20T08:39:42.614Z,140
2016-06-20T08:40:43.618Z,145
2016-06-20T08:41:42.636Z,150
2016-06-20T08:42:43.109Z,150
2016-06-20T08:43:42.675Z,155
2016-06-20T08:44:42.662Z,155
2016-06-20T08:45:43.291Z,150
2016-06-20T08:46:43.919Z,150
2016-06-20T08:47:43.907Z,145
2016-06-20T08:48:42.067Z,145
2016-06-20T08:49:45.071Z,145
2016-06-20T08:50:42.699Z,145
2016-06-20T08:51:44.125Z,150
2016-06-20T08:52:42.722Z,150
2016-06-20T08:53:43.178Z,140
2016-06-20T08:54:42.119Z,140
2016-06-20T08:55:42.748Z,140
2016-06-20T08:56:42.751Z,135
2016-06-20T08:57:42.739Z,130
2016-06-20T08:58:42.758Z,130
2016-06-20T08:59:42.761Z,135
2016-06-20T09:00:44.202Z,135
2016-06-20T09:01:43.456Z,140
2016-06-20T09:02:43.835Z,135
2016-06-20T09:03:42.166Z,135
2016-06-20T09:04:43.311Z,135
2016-06-20T09:05:44.063Z,135
2016-06-20T09:06:42.208Z,130
2016-06-20T09:07:42.836Z,130
2016-06-20T09:08:42.824Z,130
2016-06-20T09:09:42.843Z,125
2016-06-20T09:10:42.847Z,120
2016-06-20T09:11:44.194Z,115
2016-06-20T09:12:44.104Z,115
2016-06-20T09:13:44.294Z,110
2016-06-20T09:14:42.266Z,110
2016-06-20T09:15:43.552Z,110
2016-06-20T09:16:42.898Z,110
2016-06-20T09:17:42.901Z,105
2016-06-20T09:18:42.921Z,105
2016-06-20T09:19:42.908Z,105
2016-06-20T09:20:43.537Z,105
2016-06-20T09:21:42.306Z,105
2016-06-20T09:22:45.638Z,100
2016-06-20T09:23:43.579Z,100
2016-06-20T09:24:44.269Z,100
2016-06-20T09:25:44.820Z,95
2016-06-20T09:26:43.777Z,95
2016-06-20T09:27:43.015Z,90
2016-06-20T09:28:43.596Z,85
2016-06-20T09:29:43.600Z,85
2016-06-20T09:30:42.384Z,80
2016-06-20T09:31:43.029Z,75
2016-06-20T09:32:43.017Z,70
2016-06-20T09:33:45.019Z,65
2016-06-20T09:34:43.039Z,65
2016-06-20T09:35:44.605Z,60
2016-06-20T09:36:43.639Z,60
2016-06-20T09:37:43.658Z,60
2016-06-20T09:38:42.439Z,60
2016-06-20T09:39:43.056Z,60
2016-06-20T09:40:42.431Z,65
2016-06-20T09:41:43.063Z,65
2016-06-20T09:42:42.453Z,75
2016-06-20T09:43:44.321Z,75
2016-06-20T09:44:44.464Z,75
2016-06-20T09:45:42.480Z,75
2016-06-20T09:46:44.643Z,70
2016-06-20T09:47:42.487Z,70
2016-06-20T09:48:43.822Z,70
2016-06-20T09:49:43.134Z,70
2016-06-20T09:50:43.122Z,70
2016-06-20T09:51:42.515Z,70
2016-06-20T09:52:42.519Z,70
2016-06-20T09:53:43.788Z,70
2016-06-20T09:54:43.776Z,70
2016-06-20T09:55:42.529Z,75
2016-06-20T09:56:43.174Z,75
2016-06-20T09:57:44.302Z,80
2016-06-20T09:58:42.603Z,85
2016-06-20T09:59:42.575Z,85
2016-06-20T10:00:42.594Z,90
2016-06-20T10:01:42.582Z,90
2016-06-20T10:02:43.257Z,90
2016-06-20T10:03:42.604Z,90
2016-06-20T10:04:43.264Z,100
2016-06-20T10:05:42.596Z,95
2016-06-20T10:06:44.631Z,95
2016-06-20T10:07:43.243Z,95
2016-06-20T10:08:44.200Z,90
2016-06-20T10:09:43.891Z,90
2016-06-20T10:10:43.879Z,95
2016-06-20T10:11:42.664Z,100
2016-06-20T10:12:43.293Z,100
2016-06-20T10:13:43.327Z,100
2016-06-20T10:14:42.674Z,95
2016-06-20T10:15:43.942Z,95
2016-06-20T10:16:42.697Z,95
2016-06-20T10:17:45.060Z,95
2016-06-20T10:18:43.938Z,95
2016-06-20T10:19:44.629Z,95
2016-06-20T10:20:42.710Z,90
2016-06-20T10:21:43.963Z,90
2016-06-20T10:22:43.967Z,85
2016-06-20T10:23:43.971Z,85
2016-06-20T10:24:42.740Z,80
2016-06-20T10:25:42.758Z,80
2016-06-20T10:26:43.372Z,80
2016-06-20T10:27:43.390Z,80
2016-06-20T10:28:45.237Z,85
2016-06-20T10:29:43.397Z,90
2016-06-20T10:30:44.136Z,90
2016-06-20T10:31:44.029Z,95
2016-06-20T10:32:43.721Z,100
2016-06-20T10:33:43.427Z,105
2016-06-20T10:34:43.431Z,105
2016-06-20T10:35:44.668Z,110
2016-06-20T10:36:44.063Z,110
2016-06-20T10:37:43.457Z,110
2016-06-20T10:38:44.710Z,110
2016-06-20T10:39:44.386Z,115
2016-06-20T10:40:43.482Z,110
2016-06-20T10:41:44.017Z,110
2016-06-20T10:42:43.489Z,105
2016-06-20T10:43:44.118Z,110
2016-06-20T10:44:42.887Z,110
2016-06-20T10:45:44.140Z,115
2016-06-20T10:46:44.128Z,115
2016-06-20T10:47:43.570Z,125
2016-06-20T10:48:42.917Z,120
2016-06-20T10:49:43.546Z,115
2016-06-20T10:50:45.095Z,110
2016-06-20T10:51:43.553Z,105
2016-06-20T10:52:44.806Z,95
2016-06-20T10:53:42.949Z,90
2016-06-20T10:54:43.906Z,85
2016-06-20T10:55:43.581Z,85
2016-06-20T10:56:43.585Z,85
2016-06-20T10:57:43.604Z,85
2016-06-20T10:58:44.217Z,80
2016-06-20T10:59:43.611Z,80
2016-06-20T11:00:43.004Z,80
2016-06-20T11:01:45.587Z,75
2016-06-20T11:02:44.981Z,75
2016-06-20T11:03:45.640Z,75
2016-06-20T11:04:43.690Z,70
2016-06-20T11:05:44.054Z,70
2016-06-20T11:06:43.666Z,65
2016-06-20T11:07:44.279Z,60
2016-06-20T11:08:43.689Z,60
2016-06-20T11:09:43.676Z,60
2016-06-20T11:10:43.930Z,55
2016-06-20T11:11:43.075Z,55
2016-06-20T11:12:45.484Z,50
2016-06-20T11:13:43.706Z,50
2016-06-20T11:14:44.569Z,55
2016-06-20T11:15:43.728Z,55
2016-06-20T11:16:44.154Z,55
2016-06-20T11:17:44.393Z,55
2016-06-20T11:18:44.974Z,55
2016-06-20T11:19:45.008Z,55
2016-06-20T11:20:43.762Z,55
2016-06-20T11:21:44.374Z,55
2016-06-20T11:22:43.175Z,55
2016-06-20T11:23:45.694Z,55
2016-06-20T11:24:45.010Z,55
2016-06-20T11:25:44.623Z,55
2016-06-20T11:26:43.189Z,55
2016-06-20T11:27:44.427Z,55
2016-06-20T11:28:43.805Z,55
2016-06-20T11:29:44.434Z,55
2016-06-20T11:30:44.437Z,55
2016-06-20T11:31:43.237Z,50
2016-06-20T11:32:44.444Z,50
2016-06-20T11:33:43.212Z,50
2016-06-20T11:34:45.497Z,50
2016-06-20T11:35:43.235Z,50
2016-06-20T11:36:44.583Z,50
2016-06-20T11:37:43.868Z,50
2016-06-20T11:38:44.496Z,50
2016-06-20T11:39:44.483Z,50
2016-06-20T11:40:43.893Z,50
2016-06-20T11:41:43.287Z,50
2016-06-20T11:42:43.275Z,50
2016-06-20T11:43:44.514Z,50
2016-06-20T11:44:43.298Z,50
2016-06-20T11:45:45.457Z,50
2016-06-20T11:46:43.305Z,50
2016-06-20T11:47:45.214Z,55
2016-06-20T11:48:43.312Z,55
2016-06-20T11:49:44.221Z,55
2016-06-20T11:50:43.960Z,55
2016-06-20T11:51:43.947Z,55
2016-06-20T11:52:43.966Z,60
2016-06-20T11:53:44.609Z,60
2016-06-20T11:54:44.582Z,60
2016-06-20T11:55:43.961Z,60
2016-06-20T11:56:45.214Z,65
2016-06-20T11:57:53.374Z,65
2016-06-20T11:58:44.784Z,65
2016-06-20T12:11:24.763Z,55
2016-06-20T12:11:32.748Z,70
2016-06-20T12:12:36.503Z,70
2016-06-20T12:13:28.740Z,70
2016-06-20T12:14:28.729Z,70
2016-06-20T12:15:29.983Z,70
2016-06-20T12:16:30.673Z,75
2016-06-20T12:17:29.380Z,75
2016-06-20T12:18:30.618Z,75
2016-06-20T12:19:30.012Z,80
2016-06-20T12:20:29.391Z,80
2016-06-20T12:21:30.020Z,80
2016-06-20T12:22:29.414Z,85
2016-06-20T12:23:29.417Z,85
2016-06-20T12:24:29.421Z,90
2016-06-20T12:25:29.424Z,90
2016-06-20T12:26:30.052Z,90
2016-06-20T12:27:29.431Z,95
2016-06-20T12:28:28.840Z,95
2016-06-20T12:29:30.828Z,95
2016-06-20T12:30:29.722Z,95
2016-06-20T12:31:29.476Z,95
2016-06-20T12:32:30.104Z,95
2016-06-20T12:33:30.202Z,100
2016-06-20T12:34:29.486Z,95
2016-06-20T12:35:29.506Z,95
2016-06-20T12:36:30.135Z,95
2016-06-20T12:37:29.528Z,100
2016-06-20T12:38:28.922Z,100
2016-06-20T12:39:30.145Z,95
2016-06-20T12:40:45.038Z,95
2016-06-20T12:41:28.901Z,95
2016-06-20T12:42:29.544Z,100
2016-06-20T12:43:30.799Z,100
2016-06-20T12:44:29.568Z,100
2016-06-20T12:45:29.555Z,100
2016-06-20T12:46:28.965Z,100
2016-06-20T12:47:30.812Z,100
2016-06-20T12:48:28.988Z,100
2016-06-20T12:49:31.069Z,100
2016-06-20T12:50:30.838Z,100
2016-06-20T12:51:31.201Z,100
2016-06-20T12:52:29.612Z,95
2016-06-20T12:53:29.615Z,95
2016-06-20T12:54:29.618Z,95
2016-06-20T12:55:29.637Z,90
2016-06-20T12:56:30.265Z,90
2016-06-20T12:57:30.894Z,90
2016-06-20T12:58:29.663Z,90
2016-06-20T12:59:29.667Z,90
2016-06-20T13:00:31.014Z,90
2016-06-20T13:01:30.314Z,90
2016-06-20T13:02:30.786Z,90
2016-06-20T13:03:30.227Z,85
2016-06-20T13:04:29.793Z,85
2016-06-20T13:05:29.750Z,85
2016-06-20T13:06:29.706Z,85
2016-06-20T13:07:29.709Z,85
2016-06-20T13:08:29.776Z,85
2016-06-20T13:09:29.139Z,80
2016-06-20T13:10:44.689Z,75
2016-06-20T13:11:31.145Z,75
2016-06-20T13:12:29.742Z,70
2016-06-20T13:13:30.919Z,65
2016-06-20T13:14:29.141Z,60
2016-06-20T13:15:30.378Z,60
2016-06-20T13:16:29.147Z,60
2016-06-20T13:17:29.166Z,65
2016-06-20T13:18:30.420Z,60
2016-06-20T13:19:36.314Z,60
2016-06-20T13:20:33.676Z,60
2016-06-20T13:21:29.180Z,65
2016-06-20T13:22:31.278Z,65
2016-06-20T13:23:30.548Z,70
2016-06-20T13:24:30.863Z,70
2016-06-20T13:25:29.210Z,75
2016-06-20T13:26:29.214Z,75
2016-06-20T13:27:29.233Z,75
2016-06-20T13:28:29.236Z,75
2016-06-20T13:29:29.240Z,70
2016-06-20T13:30:29.244Z,70
2016-06-20T13:31:29.247Z,65
2016-06-20T13:32:29.875Z,65
2016-06-20T13:33:31.035Z,65
2016-06-20T13:34:29.273Z,65
2016-06-20T13:35:30.604Z,70
2016-06-20T13:36:29.904Z,70
2016-06-20T13:37:30.533Z,70
2016-06-20T13:38:30.661Z,70
2016-06-20T13:39:30.571Z,70
2016-06-20T13:40:29.934Z,70
2016-06-20T13:41:30.624Z,70
2016-06-20T13:42:29.331Z,70
2016-06-20T13:43:29.335Z,70
2016-06-20T13:44:31.010Z,70
2016-06-20T13:45:29.966Z,75
2016-06-20T13:46:30.674Z,75
2016-06-20T13:47:30.661Z,75
2016-06-20T13:48:29.383Z,75
2016-06-20T13:49:29.996Z,75
2016-06-20T13:50:29.406Z,70
2016-06-20T13:51:30.019Z,70
2016-06-20T13:52:29.398Z,70
2016-06-20T13:53:29.401Z,65
2016-06-20T13:54:30.044Z,65
2016-06-20T13:55:31.142Z,65
2016-06-20T13:56:29.489Z,65
2016-06-20T13:57:31.305Z,65
2016-06-20T13:58:30.684Z,65
2016-06-20T13:59:30.703Z,65
2016-06-20T14:00:30.691Z,65
2016-06-20T14:01:30.710Z,60
2016-06-20T14:02:30.713Z,60
2016-06-20T14:03:31.326Z,60
2016-06-20T14:04:30.923Z,65
2016-06-20T14:05:06.411Z,65
2016-06-20T14:05:30.130Z,65
2016-06-20T14:07:32.075Z,65
2016-06-20T14:08:31.015Z,65
2016-06-20T14:09:30.190Z,65
2016-06-20T14:10:05.169Z,65
2016-06-20T14:10:46.272Z,65
2016-06-20T14:12:05.166Z,60
2016-06-20T14:12:30.170Z,60
2016-06-20T14:13:05.155Z,60
2016-06-20T14:14:03.955Z,60
2016-06-20T14:15:05.857Z,65
2016-06-20T14:16:05.781Z,65
2016-06-20T14:17:05.198Z,65
2016-06-20T14:18:05.403Z,65
2016-06-20T14:19:05.206Z,70
2016-06-20T14:20:05.842Z,70
2016-06-20T14:22:30.861Z,70